createdAt,value
2018-05-11T00:00:19.499Z,12.00
2018-05-11T00:01:20.227Z,16.00
2018-05-11T00:02:20.941Z,14.00
2018-05-11T00:03:21.656Z,14.00
2018-05-11T00:04:22.370Z,13.00
2018-05-11T00:05:23.083Z,15.00
2018-05-11T00:06:23.793Z,14.00
2018-05-11T00:07:24.507Z,14.00
2018-05-11T00:08:25.219Z,15.00
2018-05-11T00:09:25.931Z,14.00
2018-05-11T00:10:26.643Z,13.00
2018-05-11T00:11:27.356Z,14.00
2018-05-11T00:12:28.069Z,14.00
2018-05-11T00:13:28.780Z,15.00
2018-05-11T00:14:29.494Z,15.00
2018-05-11T00:15:30.219Z,12.00
2018-05-11T00:16:30.931Z,18.00
2018-05-11T00:17:31.643Z,15.00
2018-05-11T00:18:32.370Z,14.00
2018-05-11T00:19:33.084Z,15.00
2018-05-11T00:20:33.796Z,14.00
2018-05-11T00:21:34.508Z,14.00
2018-05-11T00:22:35.232Z,15.00
2018-05-11T00:23:35.942Z,15.00
2018-05-11T00:24:36.655Z,18.00
2018-05-11T00:25:37.389Z,14.00
2018-05-11T00:26:38.078Z,14.00
2018-05-11T00:27:38.792Z,14.00
2018-05-11T00:28:39.504Z,13.00
2018-05-11T00:29:40.232Z,14.00
2018-05-11T00:30:40.944Z,16.00
2018-05-11T00:31:41.655Z,15.00
2018-05-11T00:32:42.366Z,16.00
2018-05-11T00:33:43.078Z,16.00
2018-05-11T00:34:43.790Z,16.00
2018-05-11T00:35:44.502Z,15.00
2018-05-11T00:36:45.218Z,14.00
2018-05-11T00:37:45.924Z,14.00
2018-05-11T00:38:46.648Z,13.00
2018-05-11T00:39:47.358Z,16.00
2018-05-11T00:40:48.070Z,17.00
2018-05-11T00:41:48.784Z,16.00
2018-05-11T00:42:49.495Z,16.00
2018-05-11T00:43:50.221Z,16.00
2018-05-11T00:44:50.934Z,14.00
2018-05-11T00:45:51.646Z,16.00
2018-05-11T00:46:52.358Z,17.00
2018-05-11T00:47:53.070Z,17.00
2018-05-11T00:48:53.779Z,17.00
2018-05-11T00:49:54.491Z,17.00
2018-05-11T00:50:55.230Z,16.00
2018-05-11T00:51:55.912Z,15.00
2018-05-11T00:52:56.635Z,17.00
2018-05-11T00:53:57.355Z,18.00
2018-05-11T00:54:58.065Z,16.00
2018-05-11T00:55:58.774Z,15.00
2018-05-11T00:56:59.484Z,16.00
2018-05-11T00:58:00.193Z,17.00
2018-05-11T00:59:00.914Z,18.00
2018-05-11T01:00:01.624Z,17.00
2018-05-11T01:01:02.334Z,16.00
2018-05-11T01:02:03.043Z,15.00
2018-05-11T01:03:03.767Z,15.00
2018-05-11T01:04:04.479Z,16.00
2018-05-11T01:05:05.191Z,17.00
2018-05-11T01:06:05.897Z,18.00
2018-05-11T01:07:06.608Z,16.00
2018-05-11T01:08:07.324Z,15.00
2018-05-11T01:09:08.041Z,18.00
2018-05-11T01:10:08.761Z,16.00
2018-05-11T01:11:09.472Z,16.00
2018-05-11T01:12:10.184Z,18.00
2018-05-11T01:13:10.904Z,15.00
2018-05-11T01:14:11.612Z,16.00
2018-05-11T01:15:12.334Z,15.00
2018-05-11T01:16:13.044Z,14.00
2018-05-11T01:17:13.755Z,16.00
2018-05-11T01:18:14.467Z,16.00
2018-05-11T01:19:15.186Z,17.00
2018-05-11T01:20:15.896Z,16.00
2018-05-11T01:21:16.604Z,17.00
2018-05-11T01:22:17.318Z,17.00
2018-05-11T01:23:18.028Z,17.00
2018-05-11T01:24:18.747Z,16.00
2018-05-11T01:25:19.467Z,16.00
2018-05-11T01:26:20.175Z,19.00
2018-05-11T01:27:20.886Z,16.00
2018-05-11T01:28:21.596Z,16.00
2018-05-11T01:29:22.304Z,16.00
2018-05-11T01:30:23.015Z,17.00
2018-05-11T01:31:23.723Z,17.00
2018-05-11T01:32:24.509Z,20.00
2018-05-11T01:33:25.148Z,17.00
2018-05-11T01:34:25.856Z,17.00
2018-05-11T01:35:26.566Z,16.00
2018-05-11T01:36:27.286Z,17.00
2018-05-11T01:37:27.998Z,17.00
2018-05-11T01:38:28.717Z,16.00
2018-05-11T01:39:29.425Z,19.00
2018-05-11T01:40:30.148Z,18.00
2018-05-11T01:41:30.859Z,16.00
2018-05-11T01:42:31.580Z,15.00
2018-05-11T01:43:32.288Z,17.00
2018-05-11T01:44:33.009Z,18.00
2018-05-11T01:45:33.717Z,17.00
2018-05-11T01:46:34.427Z,17.00
2018-05-11T01:47:35.134Z,17.00
2018-05-11T01:48:35.861Z,18.00
2018-05-11T01:49:36.579Z,17.00
2018-05-11T01:50:37.301Z,18.00
2018-05-11T01:51:38.021Z,18.00
2018-05-11T01:52:38.729Z,16.00
2018-05-11T01:53:39.437Z,19.00
2018-05-11T01:54:40.145Z,18.00
2018-05-11T01:55:40.854Z,18.00
2018-05-11T01:56:41.563Z,18.00
2018-05-11T01:57:42.291Z,19.00
2018-05-11T01:58:42.995Z,20.00
2018-05-11T01:59:43.703Z,15.00
2018-05-11T02:00:44.412Z,22.00
2018-05-11T02:01:45.131Z,18.00
2018-05-11T02:02:45.841Z,16.00
2018-05-11T02:03:46.549Z,18.00
2018-05-11T02:04:47.259Z,17.00
2018-05-11T02:05:47.967Z,18.00
2018-05-11T02:06:48.675Z,18.00
2018-05-11T02:07:49.395Z,21.00
2018-05-11T02:08:50.103Z,20.00
2018-05-11T02:09:50.813Z,21.00
2018-05-11T02:10:51.521Z,17.00
2018-05-11T02:11:52.241Z,17.00
2018-05-11T02:12:52.951Z,19.00
2018-05-11T02:13:53.660Z,18.00
2018-05-11T02:14:54.374Z,20.00
2018-05-11T02:15:55.081Z,16.00
2018-05-11T02:16:55.789Z,20.00
2018-05-11T02:17:56.510Z,17.00
2018-05-11T02:18:57.218Z,19.00
2018-05-11T02:19:57.941Z,18.00
2018-05-11T02:20:58.652Z,20.00
2018-05-11T02:21:59.360Z,18.00
2018-05-11T02:23:00.071Z,18.00
2018-05-11T02:24:00.781Z,20.00
2018-05-11T02:25:01.490Z,19.00
2018-05-11T02:26:02.304Z,19.00
2018-05-11T02:27:02.910Z,19.00
2018-05-11T02:28:03.613Z,17.00
2018-05-11T02:29:04.321Z,18.00
2018-05-11T02:30:05.033Z,20.00
2018-05-11T02:31:05.752Z,18.00
2018-05-11T02:32:06.460Z,20.00
2018-05-11T02:33:07.170Z,19.00
2018-05-11T02:34:07.892Z,17.00
2018-05-11T02:35:08.605Z,20.00
2018-05-11T02:36:09.312Z,19.00
2018-05-11T02:37:10.023Z,20.00
2018-05-11T02:38:10.733Z,18.00
2018-05-11T02:39:11.449Z,19.00
2018-05-11T02:40:12.155Z,18.00
2018-05-11T02:41:12.874Z,18.00
2018-05-11T02:42:13.581Z,18.00
2018-05-11T02:43:14.315Z,19.00
2018-05-11T02:44:15.024Z,18.00
2018-05-11T02:45:15.742Z,19.00
2018-05-11T02:46:16.452Z,17.00
2018-05-11T02:47:17.159Z,17.00
2018-05-11T02:48:17.870Z,17.00
2018-05-11T02:49:18.578Z,17.00
2018-05-11T02:50:19.289Z,20.00
2018-05-11T02:51:20.014Z,18.00
2018-05-11T02:52:20.720Z,17.00
2018-05-11T02:53:21.431Z,19.00
2018-05-11T02:54:22.140Z,18.00
2018-05-11T02:55:22.861Z,19.00
2018-05-11T02:56:23.570Z,17.00
2018-05-11T02:57:24.279Z,20.00
2018-05-11T02:58:25.003Z,21.00
2018-05-11T02:59:25.728Z,21.00
2018-05-11T03:00:26.416Z,20.00
2018-05-11T03:01:27.137Z,18.00
2018-05-11T03:02:27.842Z,20.00
2018-05-11T03:03:28.553Z,18.00
2018-05-11T03:04:29.260Z,18.00
2018-05-11T03:05:29.970Z,19.00
2018-05-11T03:06:30.681Z,20.00
2018-05-11T03:07:31.395Z,19.00
2018-05-11T03:08:32.113Z,19.00
2018-05-11T03:09:32.824Z,17.00
2018-05-11T03:10:33.634Z,19.00
2018-05-11T03:11:34.240Z,19.00
2018-05-11T03:12:34.961Z,16.00
2018-05-11T03:13:35.684Z,19.00
2018-05-11T03:14:36.405Z,19.00
2018-05-11T03:15:37.112Z,18.00
2018-05-11T03:16:37.820Z,18.00
2018-05-11T03:17:38.540Z,19.00
2018-05-11T03:18:39.356Z,17.00
2018-05-11T03:19:39.964Z,17.00
2018-05-11T03:20:40.673Z,21.00
2018-05-11T03:21:41.384Z,19.00
2018-05-11T03:22:42.107Z,17.00
2018-05-11T03:23:42.827Z,18.00
2018-05-11T03:24:43.550Z,19.00
2018-05-11T03:25:44.268Z,19.00
2018-05-11T03:26:44.978Z,17.00
2018-05-11T03:27:45.689Z,19.00
2018-05-11T03:28:46.401Z,18.00
2018-05-11T03:29:47.115Z,18.00
2018-05-11T03:30:47.821Z,21.00
2018-05-11T03:31:48.532Z,22.00
2018-05-11T03:32:49.245Z,17.00
2018-05-11T03:33:49.966Z,18.00
2018-05-11T03:34:50.677Z,18.00
2018-05-11T03:35:51.387Z,16.00
2018-05-11T03:36:52.096Z,18.00
2018-05-11T03:37:52.809Z,20.00
2018-05-11T03:38:53.521Z,18.00
2018-05-11T03:39:54.231Z,19.00
2018-05-11T03:40:54.943Z,19.00
2018-05-11T03:41:55.653Z,18.00
2018-05-11T03:42:56.366Z,18.00
2018-05-11T03:43:57.080Z,17.00
2018-05-11T03:44:57.790Z,19.00
2018-05-11T03:45:58.502Z,22.00
2018-05-11T03:46:59.215Z,20.00
2018-05-11T03:47:59.927Z,19.00
2018-05-11T03:49:00.639Z,19.00
2018-05-11T03:50:01.352Z,20.00
2018-05-11T03:51:02.075Z,17.00
2018-05-11T03:52:02.785Z,19.00
2018-05-11T03:53:03.497Z,22.00
2018-05-11T03:54:04.209Z,17.00
2018-05-11T03:55:04.922Z,19.00
2018-05-11T03:56:05.650Z,20.00
2018-05-11T03:57:06.375Z,20.00
2018-05-11T03:58:07.097Z,16.00
2018-05-11T03:59:07.808Z,22.00
2018-05-11T04:00:08.521Z,17.00
2018-05-11T04:01:09.235Z,19.00
2018-05-11T04:02:09.948Z,19.00
2018-05-11T04:03:10.659Z,19.00
2018-05-11T04:04:11.374Z,18.00
2018-05-11T04:05:12.082Z,17.00
2018-05-11T04:06:12.797Z,18.00
2018-05-11T04:07:13.511Z,16.00
2018-05-11T04:08:14.232Z,17.00
2018-05-11T04:09:14.944Z,18.00
2018-05-11T04:10:15.658Z,20.00
2018-05-11T04:11:16.371Z,21.00
2018-05-11T04:12:17.095Z,19.00
2018-05-11T04:13:17.811Z,17.00
2018-05-11T04:14:18.519Z,19.00
2018-05-11T04:15:19.236Z,15.00
2018-05-11T04:16:20.004Z,18.00
2018-05-11T04:17:20.668Z,20.00
2018-05-11T04:18:21.381Z,20.00
2018-05-11T04:19:22.091Z,20.00
2018-05-11T04:20:22.803Z,18.00
2018-05-11T04:21:23.514Z,17.00
2018-05-11T04:22:24.237Z,19.00
2018-05-11T04:23:24.951Z,20.00
2018-05-11T04:24:25.705Z,19.00
2018-05-11T04:25:26.390Z,18.00
2018-05-11T04:26:27.114Z,18.00
2018-05-11T04:27:27.827Z,17.00
2018-05-11T04:28:28.541Z,18.00
2018-05-11T04:29:29.255Z,18.00
2018-05-11T04:30:29.979Z,20.00
2018-05-11T04:31:30.696Z,17.00
2018-05-11T04:32:31.411Z,19.00
2018-05-11T04:33:32.127Z,19.00
2018-05-11T04:34:32.841Z,21.00
2018-05-11T04:35:33.551Z,20.00
2018-05-11T04:36:34.265Z,18.00
2018-05-11T04:37:34.980Z,16.00
2018-05-11T04:38:35.697Z,20.00
2018-05-11T04:39:36.413Z,15.00
2018-05-11T04:40:37.127Z,18.00
2018-05-11T04:41:37.855Z,18.00
2018-05-11T04:42:38.581Z,17.00
2018-05-11T04:43:39.297Z,17.00
2018-05-11T04:44:40.031Z,16.00
2018-05-11T04:45:40.749Z,18.00
2018-05-11T04:46:41.465Z,15.00
2018-05-11T04:47:42.184Z,16.00
2018-05-11T04:48:42.896Z,18.00
2018-05-11T04:49:43.612Z,19.00
2018-05-11T04:50:44.327Z,18.00
2018-05-11T04:51:45.043Z,16.00
2018-05-11T04:52:45.758Z,18.00
2018-05-11T04:53:46.476Z,17.00
2018-05-11T04:54:47.191Z,15.00
2018-05-11T04:55:47.907Z,19.00
2018-05-11T04:56:48.634Z,16.00
2018-05-11T04:57:49.349Z,17.00
2018-05-11T04:58:50.065Z,17.00
2018-05-11T04:59:50.782Z,16.00
2018-05-11T05:00:51.498Z,13.00
2018-05-11T05:01:52.215Z,17.00
2018-05-11T05:02:52.932Z,16.00
2018-05-11T05:03:53.648Z,18.00
2018-05-11T05:04:54.394Z,16.00
2018-05-11T05:05:55.100Z,16.00
2018-05-11T05:06:55.816Z,17.00
2018-05-11T05:07:56.531Z,17.00
2018-05-11T05:08:57.246Z,16.00
2018-05-11T05:09:57.961Z,15.00
2018-05-11T05:10:58.679Z,17.00
2018-05-11T05:11:59.407Z,17.00
2018-05-11T05:13:00.124Z,18.00
2018-05-11T05:14:00.845Z,18.00
2018-05-11T05:15:01.574Z,20.00
2018-05-11T05:16:02.285Z,16.00
2018-05-11T05:17:03.015Z,18.00
2018-05-11T05:18:03.730Z,16.00
2018-05-11T05:19:04.451Z,17.00
2018-05-11T05:20:05.201Z,21.00
2018-05-11T05:21:05.927Z,21.00
2018-05-11T05:22:06.655Z,16.00
2018-05-11T05:23:07.372Z,20.00
2018-05-11T05:24:08.088Z,16.00
2018-05-11T05:25:08.804Z,19.00
2018-05-11T05:26:09.532Z,16.00
2018-05-11T05:27:10.321Z,18.00
2018-05-11T05:28:10.964Z,17.00
2018-05-11T05:29:11.685Z,17.00
2018-05-11T05:30:12.399Z,16.00
2018-05-11T05:31:13.117Z,16.00
2018-05-11T05:32:13.833Z,21.00
2018-05-11T05:33:14.656Z,17.00
2018-05-11T05:34:15.283Z,21.00
2018-05-11T05:35:16.010Z,18.00
2018-05-11T05:36:16.724Z,18.00
2018-05-11T05:37:17.440Z,18.00
2018-05-11T05:38:18.155Z,19.00
2018-05-11T05:39:18.884Z,17.00
2018-05-11T05:40:19.602Z,19.00
2018-05-11T05:41:20.318Z,16.00
2018-05-11T05:42:21.035Z,18.00
2018-05-11T05:43:21.754Z,16.00
2018-05-11T05:44:22.477Z,18.00
2018-05-11T05:45:23.206Z,22.00
2018-05-11T05:46:23.932Z,17.00
2018-05-11T05:47:24.648Z,19.00
2018-05-11T05:48:25.376Z,19.00
2018-05-11T05:49:26.097Z,19.00
2018-05-11T05:50:26.808Z,19.00
2018-05-11T05:51:27.525Z,21.00
2018-05-11T05:52:28.240Z,19.00
2018-05-11T05:53:28.968Z,18.00
2018-05-11T05:54:29.682Z,21.00
2018-05-11T05:55:30.403Z,20.00
2018-05-11T05:56:31.129Z,18.00
2018-05-11T05:57:31.848Z,22.00
2018-05-11T05:58:32.632Z,17.00
2018-05-11T05:59:33.292Z,19.00
2018-05-11T06:00:34.010Z,20.00
2018-05-11T06:01:34.740Z,20.00
2018-05-11T06:02:35.576Z,20.00
2018-05-11T06:03:36.177Z,22.00
2018-05-11T06:04:36.939Z,19.00
2018-05-11T06:05:37.614Z,18.00
2018-05-11T06:06:38.332Z,20.00
2018-05-11T06:07:39.047Z,18.00
2018-05-11T06:08:39.762Z,19.00
2018-05-11T06:09:40.482Z,19.00
2018-05-11T06:10:41.215Z,18.00
2018-05-11T06:11:41.943Z,19.00
2018-05-11T06:12:42.662Z,17.00
2018-05-11T06:13:43.389Z,18.00
2018-05-11T06:14:44.129Z,18.00
2018-05-11T06:15:44.868Z,21.00
2018-05-11T06:16:45.564Z,19.00
2018-05-11T06:17:46.381Z,20.00
2018-05-11T06:18:47.001Z,17.00
2018-05-11T06:19:47.719Z,17.00
2018-05-11T06:20:48.444Z,20.00
2018-05-11T06:21:49.161Z,16.00
2018-05-11T06:22:49.875Z,18.00
2018-05-11T06:23:50.592Z,17.00
2018-05-11T06:24:51.311Z,20.00
2018-05-11T06:25:52.037Z,20.00
2018-05-11T06:26:52.755Z,20.00
2018-05-11T06:27:53.472Z,18.00
2018-05-11T06:28:54.203Z,18.00
2018-05-11T06:29:54.920Z,16.00
2018-05-11T06:30:55.640Z,18.00
2018-05-11T06:31:56.358Z,20.00
2018-05-11T06:32:57.086Z,17.00
2018-05-11T06:33:57.804Z,18.00
2018-05-11T06:34:58.521Z,18.00
2018-05-11T06:35:59.241Z,17.00
2018-05-11T06:36:59.960Z,18.00
2018-05-11T06:38:00.676Z,18.00
2018-05-11T06:39:01.393Z,19.00
2018-05-11T06:40:02.111Z,19.00
2018-05-11T06:41:02.828Z,19.00
2018-05-11T06:42:03.546Z,20.00
2018-05-11T06:43:04.267Z,20.00
2018-05-11T06:44:04.992Z,18.00
2018-05-11T06:45:05.710Z,21.00
2018-05-11T06:46:06.520Z,19.00
2018-05-11T06:47:07.154Z,19.00
2018-05-11T06:48:07.867Z,19.00
2018-05-11T06:49:08.586Z,21.00
2018-05-11T06:50:09.305Z,20.00
2018-05-11T06:51:10.034Z,17.00
2018-05-11T06:52:10.753Z,19.00
2018-05-11T06:53:11.471Z,19.00
2018-05-11T06:54:12.188Z,18.00
2018-05-11T06:55:12.918Z,19.00
2018-05-11T06:56:13.647Z,17.00
2018-05-11T06:57:14.366Z,18.00
2018-05-11T06:58:15.096Z,20.00
2018-05-11T06:59:15.803Z,20.00
2018-05-11T07:00:16.522Z,17.00
2018-05-11T07:01:17.240Z,17.00
2018-05-11T07:02:17.971Z,18.00
2018-05-11T07:03:18.702Z,17.00
2018-05-11T07:04:19.420Z,16.00
2018-05-11T07:05:20.138Z,18.00
2018-05-11T07:06:20.856Z,20.00
2018-05-11T07:07:21.595Z,18.00
2018-05-11T07:08:22.303Z,19.00
2018-05-11T07:09:23.021Z,21.00
2018-05-11T07:10:23.741Z,19.00
2018-05-11T07:11:24.458Z,19.00
2018-05-11T07:12:25.189Z,19.00
2018-05-11T07:13:25.922Z,23.00
2018-05-11T07:14:26.641Z,18.00
2018-05-11T07:15:27.368Z,19.00
2018-05-11T07:16:28.087Z,20.00
2018-05-11T07:17:28.805Z,19.00
2018-05-11T07:18:29.536Z,19.00
2018-05-11T07:19:30.283Z,21.00
2018-05-11T07:20:30.978Z,17.00
2018-05-11T07:21:31.695Z,20.00
2018-05-11T07:22:32.427Z,17.00
2018-05-11T07:23:33.144Z,17.00
2018-05-11T07:24:33.860Z,18.00
2018-05-11T07:25:34.580Z,19.00
2018-05-11T07:26:35.311Z,15.00
2018-05-11T07:27:36.041Z,15.00
2018-05-11T07:28:36.769Z,20.00
2018-05-11T07:29:37.488Z,17.00
2018-05-11T07:30:38.221Z,17.00
2018-05-11T07:31:38.938Z,16.00
2018-05-11T07:32:39.657Z,16.00
2018-05-11T07:33:40.375Z,19.00
2018-05-11T07:34:41.096Z,17.00
2018-05-11T07:35:41.811Z,16.00
2018-05-11T07:36:42.530Z,16.00
2018-05-11T07:37:43.251Z,18.00
2018-05-11T07:38:43.969Z,20.00
2018-05-11T07:39:44.689Z,19.00
2018-05-11T07:40:45.407Z,18.00
2018-05-11T07:41:46.125Z,18.00
2018-05-11T07:42:46.841Z,20.00
2018-05-11T07:43:47.560Z,19.00
2018-05-11T07:44:48.292Z,16.00
2018-05-11T07:45:49.013Z,21.00
2018-05-11T07:46:49.739Z,20.00
2018-05-11T07:47:50.457Z,21.00
2018-05-11T07:48:51.189Z,20.00
2018-05-11T07:49:51.906Z,20.00
2018-05-11T07:50:52.624Z,19.00
2018-05-11T07:51:53.351Z,18.00
2018-05-11T07:52:54.083Z,18.00
2018-05-11T07:53:54.802Z,21.00
2018-05-11T07:54:55.526Z,18.00
2018-05-11T07:55:56.251Z,19.00
2018-05-11T07:56:56.983Z,18.00
2018-05-11T07:57:57.702Z,18.00
2018-05-11T07:58:58.421Z,17.00
2018-05-11T07:59:59.141Z,19.00
2018-05-11T08:00:59.859Z,20.00
2018-05-11T08:02:00.580Z,18.00
2018-05-11T08:03:01.300Z,17.00
2018-05-11T08:04:02.081Z,17.00
2018-05-11T08:05:02.744Z,17.00
2018-05-11T08:06:03.476Z,18.00
2018-05-11T08:07:04.196Z,18.00
2018-05-11T08:08:04.916Z,18.00
2018-05-11T08:09:05.639Z,17.00
2018-05-11T08:10:06.370Z,19.00
2018-05-11T08:11:07.093Z,18.00
2018-05-11T08:12:07.817Z,18.00
2018-05-11T08:13:08.542Z,15.00
2018-05-11T08:14:09.275Z,15.00
2018-05-11T08:15:09.995Z,14.00
2018-05-11T08:16:10.721Z,14.00
2018-05-11T08:17:11.449Z,17.00
2018-05-11T08:18:12.199Z,16.00
2018-05-11T08:19:12.928Z,13.00
2018-05-11T08:20:13.687Z,13.00
2018-05-11T08:21:14.400Z,16.00
2018-05-11T08:22:15.126Z,14.00
2018-05-11T08:23:15.857Z,12.00
2018-05-11T08:24:16.601Z,12.00
2018-05-11T08:25:17.329Z,13.00
2018-05-11T08:26:18.069Z,13.00
2018-05-11T08:27:18.797Z,15.00
2018-05-11T08:28:19.524Z,15.00
2018-05-11T08:29:20.252Z,16.00
2018-05-11T08:30:20.979Z,14.00
2018-05-11T08:31:21.705Z,14.00
2018-05-11T08:32:22.443Z,15.00
2018-05-11T08:33:23.170Z,14.00
2018-05-11T08:34:23.900Z,14.00
2018-05-11T08:35:24.641Z,14.00
2018-05-11T08:36:25.373Z,14.00
2018-05-11T08:37:26.100Z,13.00
2018-05-11T08:38:26.834Z,14.00
2018-05-11T08:39:27.562Z,16.00
2018-05-11T08:40:28.290Z,15.00
2018-05-11T08:41:29.028Z,15.00
2018-05-11T08:42:29.760Z,14.00
2018-05-11T08:43:30.492Z,13.00
2018-05-11T08:44:31.227Z,12.00
2018-05-11T08:45:31.961Z,14.00
2018-05-11T08:46:32.696Z,13.00
2018-05-11T08:47:33.461Z,14.00
2018-05-11T08:48:34.189Z,14.00
2018-05-11T08:49:34.939Z,14.00
2018-05-11T08:50:35.660Z,14.00
2018-05-11T08:51:36.392Z,17.00
2018-05-11T08:52:37.129Z,15.00
2018-05-11T08:53:37.864Z,14.00
2018-05-11T08:54:38.601Z,15.00
2018-05-11T08:55:39.340Z,13.00
2018-05-11T08:56:40.088Z,14.00
2018-05-11T08:57:40.836Z,17.00
2018-05-11T08:58:41.568Z,14.00
2018-05-11T08:59:42.319Z,15.00
2018-05-11T09:00:43.054Z,15.00
2018-05-11T09:01:43.784Z,13.00
2018-05-11T09:02:44.519Z,16.00
2018-05-11T09:03:45.252Z,15.00
2018-05-11T09:04:45.988Z,13.00
2018-05-11T09:05:46.721Z,14.00
2018-05-11T09:06:47.456Z,13.00
2018-05-11T09:07:48.188Z,13.00
2018-05-11T09:08:48.942Z,14.00
2018-05-11T09:09:49.677Z,11.00
2018-05-11T09:10:50.415Z,11.00
2018-05-11T09:11:51.159Z,11.00
2018-05-11T09:12:51.895Z,13.00
2018-05-11T09:13:52.629Z,12.00
2018-05-11T09:14:53.366Z,11.00
2018-05-11T09:15:54.102Z,11.00
2018-05-11T09:16:54.835Z,13.00
2018-05-11T09:17:55.581Z,12.00
2018-05-11T09:18:56.314Z,10.00
2018-05-11T09:19:57.047Z,12.00
2018-05-11T09:20:57.778Z,12.00
2018-05-11T09:21:58.528Z,12.00
2018-05-11T09:22:59.242Z,13.00
2018-05-11T09:23:59.973Z,13.00
2018-05-11T09:25:00.704Z,12.00
2018-05-11T09:26:01.439Z,12.00
2018-05-11T09:27:02.184Z,15.00
2018-05-11T09:28:02.911Z,14.00
2018-05-11T09:29:03.644Z,17.00
2018-05-11T09:30:04.390Z,13.00
2018-05-11T09:31:05.121Z,13.00
2018-05-11T09:32:05.855Z,12.00
2018-05-11T09:33:06.591Z,12.00
2018-05-11T09:34:07.320Z,13.00
2018-05-11T09:35:08.064Z,14.00
2018-05-11T09:36:08.810Z,11.00
2018-05-11T09:37:09.539Z,9.00
2018-05-11T09:38:10.284Z,12.00
2018-05-11T09:39:11.012Z,11.00
2018-05-11T09:40:11.746Z,11.00
2018-05-11T09:41:12.476Z,10.00
2018-05-11T09:42:13.209Z,11.00
2018-05-11T09:43:13.955Z,13.00
2018-05-11T09:44:14.688Z,13.00
2018-05-11T09:45:15.419Z,12.00
2018-05-11T09:46:16.150Z,13.00
2018-05-11T09:47:16.883Z,14.00
2018-05-11T09:48:17.609Z,13.00
2018-05-11T09:49:18.341Z,16.00
2018-05-11T09:50:19.085Z,12.00
2018-05-11T09:51:19.815Z,12.00
2018-05-11T09:52:20.547Z,12.00
2018-05-11T09:53:21.279Z,11.00
2018-05-11T09:54:22.026Z,12.00
2018-05-11T09:55:22.820Z,12.00
2018-05-11T09:56:23.507Z,11.00
2018-05-11T09:57:24.236Z,11.00
2018-05-11T09:58:24.966Z,10.00
2018-05-11T09:59:25.694Z,12.00
2018-05-11T10:00:26.435Z,11.00
2018-05-11T10:01:27.172Z,13.00
2018-05-11T10:02:27.899Z,12.00
2018-05-11T10:03:28.631Z,11.00
2018-05-11T10:04:29.364Z,9.00
2018-05-11T10:05:30.097Z,11.00
2018-05-11T10:06:30.831Z,11.00
2018-05-11T10:07:31.563Z,11.00
2018-05-11T10:08:32.293Z,11.00
2018-05-11T10:09:33.024Z,12.00
2018-05-11T10:10:33.752Z,10.00
2018-05-11T10:11:34.489Z,12.00
2018-05-11T10:12:35.230Z,15.00
2018-05-11T10:13:35.962Z,12.00
2018-05-11T10:14:36.704Z,11.00
2018-05-11T10:15:37.436Z,10.00
2018-05-11T10:16:38.167Z,12.00
2018-05-11T10:17:38.900Z,11.00
2018-05-11T10:18:39.706Z,12.00
2018-05-11T10:19:40.374Z,11.00
2018-05-11T10:20:41.134Z,10.00
2018-05-11T10:21:41.842Z,10.00
2018-05-11T10:22:42.574Z,13.00
2018-05-11T10:23:43.316Z,9.00
2018-05-11T10:24:44.049Z,8.00
2018-05-11T10:25:44.795Z,10.00
2018-05-11T10:26:45.528Z,9.00
2018-05-11T10:27:46.265Z,9.00
2018-05-11T10:28:47.101Z,10.00
2018-05-11T10:29:47.736Z,9.00
2018-05-11T10:30:48.467Z,10.00
2018-05-11T10:31:49.200Z,14.00
2018-05-11T10:32:49.946Z,11.00
2018-05-11T10:33:50.677Z,11.00
2018-05-11T10:34:51.405Z,11.00
2018-05-11T10:35:52.149Z,10.00
2018-05-11T10:36:52.882Z,11.00
2018-05-11T10:37:53.612Z,9.00
2018-05-11T10:38:54.343Z,9.00
2018-05-11T10:39:55.154Z,11.00
2018-05-11T10:40:55.806Z,12.00
2018-05-11T10:41:56.536Z,12.00
2018-05-11T10:42:57.279Z,11.00
2018-05-11T10:43:58.007Z,12.00
2018-05-11T10:44:58.748Z,9.00
2018-05-11T10:45:59.483Z,13.00
2018-05-11T10:47:00.222Z,10.00
2018-05-11T10:48:00.977Z,9.00
2018-05-11T10:49:01.708Z,10.00
2018-05-11T10:50:02.452Z,10.00
2018-05-11T10:51:03.217Z,10.00
2018-05-11T10:52:03.978Z,12.00
2018-05-11T10:53:04.743Z,12.00
2018-05-11T10:54:05.506Z,12.00
2018-05-11T10:55:06.253Z,11.00
2018-05-11T10:56:06.996Z,14.00
2018-05-11T10:57:07.755Z,11.00
2018-05-11T10:58:08.484Z,13.00
2018-05-11T10:59:09.246Z,9.00
2018-05-11T11:00:10.014Z,11.00
2018-05-11T11:01:10.774Z,12.00
2018-05-11T11:02:11.526Z,12.00
2018-05-11T11:03:12.259Z,12.00
2018-05-11T11:04:12.991Z,13.00
2018-05-11T11:05:13.733Z,12.00
2018-05-11T11:06:14.468Z,13.00
2018-05-11T11:07:15.200Z,13.00
2018-05-11T11:08:15.931Z,11.00
2018-05-11T11:09:16.675Z,12.00
2018-05-11T11:10:17.425Z,12.00
2018-05-11T11:11:18.148Z,12.00
2018-05-11T11:12:18.876Z,10.00
2018-05-11T11:13:19.609Z,11.00
2018-05-11T11:14:20.419Z,13.00
2018-05-11T11:15:21.074Z,12.00
2018-05-11T11:16:21.810Z,12.00
2018-05-11T11:17:22.539Z,11.00
2018-05-11T11:18:23.273Z,13.00
2018-05-11T11:19:24.017Z,12.00
2018-05-11T11:20:24.749Z,10.00
2018-05-11T11:21:25.483Z,11.00
2018-05-11T11:22:26.217Z,13.00
2018-05-11T11:23:26.950Z,10.00
2018-05-11T11:24:27.685Z,11.00
2018-05-11T11:25:28.419Z,11.00
2018-05-11T11:26:29.152Z,10.00
2018-05-11T11:27:29.885Z,9.00
2018-05-11T11:28:30.620Z,11.00
2018-05-11T11:29:31.355Z,10.00
2018-05-11T11:30:32.092Z,11.00
2018-05-11T11:31:32.826Z,10.00
2018-05-11T11:32:33.573Z,10.00
2018-05-11T11:33:34.308Z,12.00
2018-05-11T11:34:35.108Z,10.00
2018-05-11T11:35:35.786Z,10.00
2018-05-11T11:36:36.529Z,11.00
2018-05-11T11:37:37.264Z,10.00
2018-05-11T11:38:38.003Z,11.00
2018-05-11T11:39:38.737Z,9.00
2018-05-11T11:40:39.472Z,10.00
2018-05-11T11:41:40.207Z,10.00
2018-05-11T11:42:40.958Z,11.00
2018-05-11T11:43:41.702Z,10.00
2018-05-11T11:44:42.439Z,10.00
2018-05-11T11:45:43.189Z,11.00
2018-05-11T11:46:43.935Z,13.00
2018-05-11T11:47:44.671Z,10.00
2018-05-11T11:48:45.407Z,10.00
2018-05-11T11:49:46.158Z,10.00
2018-05-11T11:50:46.898Z,12.00
2018-05-11T11:51:47.642Z,11.00
2018-05-11T11:52:48.381Z,12.00
2018-05-11T11:53:49.121Z,12.00
2018-05-11T11:54:49.864Z,11.00
2018-05-11T11:55:50.605Z,9.00
2018-05-11T11:56:51.348Z,10.00
2018-05-11T11:57:52.094Z,11.00
2018-05-11T11:58:52.850Z,11.00
2018-05-11T11:59:53.646Z,10.00
2018-05-11T12:00:54.346Z,15.00
2018-05-11T12:01:55.154Z,9.00
2018-05-11T12:02:55.834Z,12.00
2018-05-11T12:03:56.593Z,11.00
2018-05-11T12:04:57.337Z,11.00
2018-05-11T12:05:58.096Z,11.00
2018-05-11T12:06:58.849Z,12.00
2018-05-11T12:07:59.598Z,14.00
2018-05-11T12:09:00.421Z,11.00
2018-05-11T12:10:01.086Z,12.00
2018-05-11T12:11:01.838Z,13.00
2018-05-11T12:12:02.597Z,12.00
2018-05-11T12:13:03.352Z,12.00
2018-05-11T12:14:04.096Z,13.00
2018-05-11T12:15:04.843Z,12.00
2018-05-11T12:16:05.588Z,11.00
2018-05-11T12:17:06.337Z,14.00
2018-05-11T12:18:07.082Z,15.00
2018-05-11T12:19:07.834Z,11.00
2018-05-11T12:20:08.580Z,13.00
2018-05-11T12:21:09.322Z,13.00
2018-05-11T12:22:10.067Z,12.00
2018-05-11T12:23:10.816Z,14.00
2018-05-11T12:24:11.558Z,15.00
2018-05-11T12:25:12.300Z,10.00
2018-05-11T12:26:13.077Z,11.00
2018-05-11T12:27:13.799Z,12.00
2018-05-11T12:28:14.545Z,14.00
2018-05-11T12:29:15.302Z,12.00
2018-05-11T12:30:16.042Z,12.00
2018-05-11T12:31:16.779Z,13.00
2018-05-11T12:32:17.513Z,12.00
2018-05-11T12:33:18.262Z,14.00
2018-05-11T12:34:18.995Z,14.00
2018-05-11T12:35:19.730Z,13.00
2018-05-11T12:36:20.464Z,14.00
2018-05-11T12:37:21.200Z,14.00
2018-05-11T12:38:21.936Z,12.00
2018-05-11T12:39:22.670Z,13.00
2018-05-11T12:40:23.416Z,12.00
2018-05-11T12:41:24.149Z,14.00
2018-05-11T12:42:24.884Z,14.00
2018-05-11T12:43:25.630Z,15.00
2018-05-11T12:44:26.384Z,13.00
2018-05-11T12:45:27.108Z,12.00
2018-05-11T12:46:27.840Z,14.00
2018-05-11T12:47:28.572Z,14.00
2018-05-11T12:48:29.308Z,13.00
2018-05-11T12:49:30.041Z,12.00
2018-05-11T12:50:30.775Z,16.00
2018-05-11T12:51:31.510Z,14.00
2018-05-11T12:52:32.246Z,17.00
2018-05-11T12:53:32.980Z,14.00
2018-05-11T12:54:33.730Z,16.00
2018-05-11T12:55:34.461Z,16.00
2018-05-11T12:56:35.192Z,13.00
2018-05-11T12:57:35.936Z,15.00
2018-05-11T12:58:36.667Z,13.00
2018-05-11T12:59:37.401Z,16.00
2018-05-11T13:00:38.134Z,13.00
2018-05-11T13:01:38.876Z,14.00
2018-05-11T13:02:39.610Z,14.00